Terminal Aerodrome Forecast
Issued by NWS

Current Version | Previous Version | Graphics & Text | Print | Product List | Glossary On
Versions: 1 2 3 4 5 6 7 8 9 10 11 12 13 14 15 16 17 18 19 20 21 22 23 24 25 26 27
000
FTUS41 KRLX 280500
TAFCKB
TAF
KCKB 280538Z 2806/2906 00000KT P6SM FEW016 SCT023 SCT035
     FM280700 25008KT 6SM BR BKN015
     FM281500 26011G16KT P6SM BKN025
     FM281800 26011G16KT P6SM VCTS BKN035CB
     FM281900 27010G16KT 5SM SHRA VCTS BKN025CB
     FM282200 29007KT P6SM BKN040
     FM290300 31004KT 5SM BR BKN060=

USA.gov is the U.S. government's official web portal to all federal, state and local government web resources and services.